Time;durP1;ratioP1;P1;durP2;ratioP2;P2;SDS_P1;SDS_P2;PMS_P1;PMS_P2;Temp;Humidity;BMP_temperature;BMP_pressure;BME280_temperature;BME280_humidity;BME280_pressure;Samples;Min_cycle;Max_cycle;Signal;HPM_P1;HPM_P2
2021/07/17 00:01:48;;;;;;;32.22;16.73;;;18.40;99.90;;;;;;5014734;28;20041;-69
2021/07/17 00:04:14;;;;;;;41.38;16.35;;;18.30;99.90;;;;;;5015243;28;20026;-68
2021/07/17 00:06:39;;;;;;;38.25;16.77;;;18.40;99.90;;;;;;5030633;28;20522;-69
2021/07/17 00:09:06;;;;;;;36.95;16.95;;;18.40;99.90;;;;;;5014552;28;20077;-68
2021/07/17 00:11:32;;;;;;;31.48;16.83;;;18.30;99.90;;;;;;5029718;28;20030;-69
2021/07/17 00:13:58;;;;;;;34.95;16.25;;;18.30;99.90;;;;;;5014783;28;20076;-68
2021/07/17 00:16:26;;;;;;;34.97;16.77;;;18.40;99.90;;;;;;5014943;28;20026;-68
2021/07/17 00:18:54;;;;;;;36.05;16.48;;;18.40;99.90;;;;;;5014676;28;20014;-69
2021/07/17 00:21:21;;;;;;;39.88;16.88;;;18.30;99.90;;;;;;5014677;28;20048;-69
2021/07/17 00:23:47;;;;;;;43.08;17.48;;;18.30;99.90;;;;;;5014638;28;20022;-69
2021/07/17 00:26:13;;;;;;;39.63;16.95;;;18.20;99.90;;;;;;5014853;28;20022;-69
2021/07/17 00:28:38;;;;;;;48.85;18.05;;;18.20;99.90;;;;;;5014521;28;20018;-68
2021/07/17 00:31:04;;;;;;;39.70;16.80;;;18.20;99.90;;;;;;5014678;28;20032;-69
2021/07/17 00:33:29;;;;;;;37.35;16.70;;;18.20;99.90;;;;;;5014721;28;20029;-69
2021/07/17 00:35:55;;;;;;;42.63;17.33;;;18.30;99.90;;;;;;5014631;28;20062;-69
2021/07/17 00:38:21;;;;;;;38.38;16.50;;;18.20;99.90;;;;;;5014374;28;20027;-69
2021/07/17 00:40:47;;;;;;;43.40;17.27;;;18.10;99.90;;;;;;5029576;28;20033;-69
2021/07/17 00:43:13;;;;;;;37.92;16.90;;;18.10;99.90;;;;;;5014302;28;20037;-69
2021/07/17 00:45:39;;;;;;;47.22;17.58;;;18.10;99.90;;;;;;5014559;28;20037;-69
2021/07/17 00:48:04;;;;;;;43.25;18.38;;;18.10;99.90;;;;;;5014253;28;20037;-69
2021/07/17 00:50:30;;;;;;;44.58;16.52;;;18.00;99.90;;;;;;5013887;28;20057;-69
2021/07/17 00:52:56;;;;;;;32.97;16.67;;;18.00;99.90;;;;;;5014548;28;20022;-68
2021/07/17 00:55:27;;;;;;;41.05;16.73;;;18.00;99.90;;;;;;5029338;28;20077;-69
2021/07/17 00:57:53;;;;;;;38.75;16.45;;;17.90;99.90;;;;;;5029427;28;20102;-69
2021/07/17 01:00:20;;;;;;;45.42;17.20;;;17.90;99.90;;;;;;5014228;28;20567;-69
2021/07/17 01:02:57;;;;;;;38.85;16.67;;;17.90;99.90;;;;;;5014310;28;20083;-68
2021/07/17 01:05:23;;;;;;;42.47;16.45;;;18.00;99.90;;;;;;5028886;28;20030;-68
2021/07/17 01:07:50;;;;;;;39.97;16.63;;;17.90;99.90;;;;;;5013747;28;20160;-69
2021/07/17 01:10:19;;;;;;;43.53;18.30;;;17.90;99.90;;;;;;5028585;28;20474;-69
2021/07/17 01:12:47;;;;;;;40.83;17.08;;;17.80;99.90;;;;;;5014225;28;20412;-68
2021/07/17 01:15:13;;;;;;;49.72;17.73;;;17.80;99.90;;;;;;5029539;28;20093;-68
2021/07/17 01:17:39;;;;;;;34.13;15.65;;;17.80;99.90;;;;;;5029180;28;20026;-69
2021/07/17 01:20:08;;;;;;;40.72;16.52;;;17.80;99.90;;;;;;5013895;28;20069;-69
2021/07/17 01:22:36;;;;;;;43.72;16.92;;;17.80;99.90;;;;;;5013811;28;20419;-68
2021/07/17 01:25:06;;;;;;;44.65;17.65;;;17.80;99.90;;;;;;5029293;28;20097;-69
2021/07/17 01:27:32;;;;;;;38.72;17.25;;;17.80;99.90;;;;;;5013851;28;20026;-69
2021/07/17 01:29:57;;;;;;;31.02;16.38;;;17.80;99.90;;;;;;5013978;28;20571;-69
2021/07/17 01:32:24;;;;;;;43.20;17.08;;;17.80;99.90;;;;;;5014018;28;20094;-68
2021/07/17 01:34:49;;;;;;;46.80;17.50;;;17.70;99.90;;;;;;5014011;28;20017;-68
2021/07/17 01:37:15;;;;;;;39.97;17.15;;;17.70;99.90;;;;;;5013471;28;20183;-69
2021/07/17 01:39:41;;;;;;;37.05;17.83;;;17.60;99.90;;;;;;5013969;28;20041;-68
2021/07/17 01:42:08;;;;;;;36.08;17.38;;;17.60;99.90;;;;;;5028621;28;20040;-68
2021/07/17 01:44:49;;;;;;;42.90;17.80;;;17.60;99.90;;;;;;5013893;28;20451;-68
2021/07/17 01:47:17;;;;;;;44.28;17.58;;;17.60;99.90;;;;;;5028546;28;20456;-68
2021/07/17 01:49:43;;;;;;;37.42;16.27;;;17.50;99.90;;;;;;5013759;28;20029;-68
2021/07/17 01:52:09;;;;;;;41.95;17.15;;;17.50;99.90;;;;;;5013893;28;20026;-69
2021/07/17 01:54:37;;;;;;;42.03;17.80;;;17.50;99.90;;;;;;5013821;28;20049;-68
2021/07/17 01:57:05;;;;;;;48.25;18.30;;;17.40;99.90;;;;;;5013546;28;20018;-68
2021/07/17 01:59:37;;;;;;;39.63;18.70;;;17.40;99.90;;;;;;5028601;28;20134;-69
2021/07/17 02:02:04;;;;;;;38.00;17.88;;;17.40;99.90;;;;;;5013249;28;20022;-69
2021/07/17 02:04:29;;;;;;;41.42;18.98;;;17.30;99.90;;;;;;5013524;28;20045;-69
2021/07/17 02:06:55;;;;;;;41.78;19.92;;;17.20;99.90;;;;;;5013781;28;20468;-68
2021/07/17 02:09:20;;;;;;;43.20;19.90;;;17.20;99.90;;;;;;5028400;28;20054;-68
2021/07/17 02:11:46;;;;;;;40.80;19.70;;;17.10;99.90;;;;;;5029132;28;20022;-68
2021/07/17 02:14:11;;;;;;;39.42;19.10;;;17.00;99.90;;;;;;5013646;28;20452;-68
2021/07/17 02:16:39;;;;;;;46.50;19.38;;;17.00;99.90;;;;;;5014041;28;20033;-68
2021/07/17 02:19:17;;;;;;;44.10;21.02;;;17.00;99.90;;;;;;5015400;28;20022;-69
2021/07/17 02:21:44;;;;;;;51.35;20.92;;;16.80;99.90;;;;;;5032958;28;20332;-69
2021/07/17 02:24:10;;;;;;;51.42;21.63;;;16.80;99.90;;;;;;5032190;28;20375;-68
2021/07/17 02:26:35;;;;;;;51.53;21.13;;;16.80;99.90;;;;;;5017009;28;20034;-69
2021/07/17 02:29:01;;;;;;;52.42;20.80;;;16.80;99.90;;;;;;5016920;28;20033;-69
2021/07/17 02:31:26;;;;;;;48.72;19.73;;;16.90;99.90;;;;;;5031910;28;20053;-68
2021/07/17 02:33:52;;;;;;;40.03;20.23;;;16.90;99.90;;;;;;5016930;28;20030;-68
2021/07/17 02:36:17;;;;;;;52.65;21.77;;;16.90;99.90;;;;;;5016919;28;20367;-68
2021/07/17 02:38:43;;;;;;;43.28;20.13;;;17.00;99.90;;;;;;5016848;28;20022;-68
2021/07/17 02:41:08;;;;;;;45.00;21.10;;;17.00;99.90;;;;;;5016483;28;20478;-69
2021/07/17 02:43:34;;;;;;;48.30;21.25;;;16.90;99.90;;;;;;5016744;28;20133;-68
2021/07/17 02:45:59;;;;;;;54.80;21.95;;;17.00;99.90;;;;;;5016691;28;20034;-68
2021/07/17 02:48:25;;;;;;;47.92;21.95;;;16.90;99.90;;;;;;5031936;28;20061;-68
2021/07/17 02:50:50;;;;;;;47.80;20.85;;;17.00;99.90;;;;;;5016264;28;20380;-68
2021/07/17 02:53:16;;;;;;;44.40;20.35;;;17.10;99.90;;;;;;5031258;28;20076;-69
2021/07/17 02:55:41;;;;;;;48.28;22.15;;;17.00;99.90;;;;;;5016511;28;20531;-68
2021/07/17 02:58:07;;;;;;;40.22;20.35;;;17.00;99.90;;;;;;5016484;28;20026;-69
2021/07/17 03:00:34;;;;;;;45.95;21.13;;;17.00;99.90;;;;;;5016459;28;20030;-68
2021/07/17 03:03:00;;;;;;;49.10;22.10;;;17.00;99.90;;;;;;5016123;28;20022;-68
2021/07/17 03:05:26;;;;;;;45.78;21.90;;;17.00;99.90;;;;;;5031261;28;20026;-68
2021/07/17 03:07:51;;;;;;;47.97;22.13;;;17.00;99.90;;;;;;5031339;28;20073;-69
2021/07/17 03:10:17;;;;;;;52.92;22.38;;;17.00;99.90;;;;;;5015524;28;20120;-68
2021/07/17 03:12:42;;;;;;;50.00;23.42;;;17.00;99.90;;;;;;5016200;28;20030;-68
2021/07/17 03:15:08;;;;;;;50.67;22.98;;;17.00;99.90;;;;;;5016136;28;20034;-68
2021/07/17 03:17:34;;;;;;;57.75;22.90;;;17.00;99.90;;;;;;5015860;28;20033;-68
2021/07/17 03:19:59;;;;;;;46.38;23.33;;;17.00;99.90;;;;;;5015768;28;20026;-68
2021/07/17 03:22:25;;;;;;;43.47;22.38;;;17.00;99.90;;;;;;5016024;28;20030;-68
2021/07/17 03:24:50;;;;;;;46.85;21.98;;;17.00;99.90;;;;;;5015924;28;20030;-68
2021/07/17 03:27:16;;;;;;;46.92;23.40;;;17.00;99.90;;;;;;5015907;28;20034;-69
2021/07/17 03:29:41;;;;;;;47.10;22.50;;;17.00;99.90;;;;;;5015769;28;20030;-69
2021/07/17 03:32:07;;;;;;;45.33;22.45;;;17.00;99.90;;;;;;5015747;28;20026;-69
2021/07/17 03:34:33;;;;;;;42.38;22.63;;;16.90;99.90;;;;;;5015206;28;20029;-68
2021/07/17 03:36:58;;;;;;;58.33;23.00;;;16.90;99.90;;;;;;5030774;28;20026;-68
2021/07/17 03:39:24;;;;;;;54.35;23.13;;;17.00;99.90;;;;;;5015708;28;20519;-68
2021/07/17 03:41:49;;;;;;;51.55;22.23;;;17.00;99.90;;;;;;5015090;28;20026;-69
2021/07/17 03:44:16;;;;;;;40.70;21.67;;;17.00;99.90;;;;;;5030666;28;20030;-68
2021/07/17 03:46:42;;;;;;;44.00;23.27;;;17.10;99.90;;;;;;5015276;28;20406;-68
2021/07/17 03:49:08;;;;;;;62.83;23.75;;;17.00;99.90;;;;;;5015413;28;20030;-68
2021/07/17 03:51:33;;;;;;;54.90;23.50;;;17.10;99.90;;;;;;5015531;28;20520;-68
2021/07/17 03:53:59;;;;;;;41.65;22.40;;;17.10;99.90;;;;;;5014921;28;20080;-68
2021/07/17 03:56:24;;;;;;;49.35;22.38;;;17.10;99.90;;;;;;5015420;28;20030;-68
2021/07/17 03:58:50;;;;;;;55.88;24.00;;;17.10;99.90;;;;;;5015041;28;20494;-68
2021/07/17 04:01:16;;;;;;;46.20;22.92;;;17.10;99.90;;;;;;5015323;28;20034;-68
2021/07/17 04:03:45;;;;;;;42.72;22.00;;;17.10;99.90;;;;;;5014848;28;20041;-69
2021/07/17 04:06:10;;;;;;;51.92;22.98;;;17.20;99.90;;;;;;5015221;28;20029;-68
2021/07/17 04:08:36;;;;;;;49.42;23.70;;;17.20;99.90;;;;;;5014653;28;20033;-68
2021/07/17 04:11:02;;;;;;;49.25;22.70;;;17.10;99.90;;;;;;5030074;28;20042;-68
2021/07/17 04:13:27;;;;;;;50.10;23.38;;;17.20;99.90;;;;;;5014893;28;20037;-69
2021/07/17 04:15:54;;;;;;;49.00;22.33;;;17.20;99.90;;;;;;5015163;28;20379;-68
2021/07/17 04:18:19;;;;;;;44.33;22.42;;;17.10;99.90;;;;;;5015063;28;20026;-68
2021/07/17 04:20:45;;;;;;;58.20;24.38;;;17.10;99.90;;;;;;5029991;28;20080;-68
2021/07/17 04:23:10;;;;;;;55.42;23.63;;;17.10;99.90;;;;;;5015020;28;20101;-68
2021/07/17 04:25:36;;;;;;;55.25;24.05;;;17.10;99.90;;;;;;5014929;28;20037;-68
2021/07/17 04:28:02;;;;;;;47.70;22.88;;;17.10;99.90;;;;;;5014412;28;20026;-68
2021/07/17 04:30:27;;;;;;;40.83;22.13;;;17.10;99.90;;;;;;5014793;28;20463;-69
2021/07/17 04:32:53;;;;;;;42.67;22.05;;;17.20;99.90;;;;;;5014294;28;20033;-69
2021/07/17 04:35:18;;;;;;;44.20;20.98;;;17.20;99.90;;;;;;5014491;28;20033;-68
2021/07/17 04:37:45;;;;;;;46.38;21.30;;;17.20;99.90;;;;;;5029754;28;20079;-68
2021/07/17 04:40:11;;;;;;;46.85;22.50;;;17.30;99.90;;;;;;5014325;28;20105;-68
2021/07/17 04:42:37;;;;;;;46.10;21.38;;;17.30;99.90;;;;;;5014359;28;20053;-68
2021/07/17 04:45:03;;;;;;;44.15;20.55;;;17.30;99.90;;;;;;5014545;28;20104;-68
2021/07/17 04:47:28;;;;;;;50.47;20.92;;;17.30;99.90;;;;;;5014517;28;20156;-68
2021/07/17 04:49:53;;;;;;;45.47;20.48;;;17.30;99.90;;;;;;5012736;28;20105;-68
2021/07/17 04:52:19;;;;;;;43.78;21.42;;;17.30;99.90;;;;;;5014491;28;20101;-69
2021/07/17 04:54:44;;;;;;;43.00;22.30;;;17.30;99.90;;;;;;5014194;28;20129;-68
2021/07/17 04:57:10;;;;;;;39.25;19.77;;;17.40;99.90;;;;;;5014428;28;20026;-69
2021/07/17 04:59:36;;;;;;;51.97;22.05;;;17.50;99.90;;;;;;5014327;28;20026;-69
2021/07/17 05:02:01;;;;;;;44.47;21.77;;;17.50;99.90;;;;;;5014359;28;20022;-68
2021/07/17 05:04:27;;;;;;;48.95;21.55;;;17.40;99.90;;;;;;5014300;28;20411;-68
2021/07/17 05:06:53;;;;;;;44.63;20.55;;;17.30;99.90;;;;;;5029339;28;20030;-69
2021/07/17 05:09:18;;;;;;;49.53;20.85;;;17.40;99.90;;;;;;5013810;28;20116;-69
2021/07/17 05:11:44;;;;;;;47.92;19.73;;;17.50;99.90;;;;;;5014249;28;20022;-69
2021/07/17 05:14:09;;;;;;;42.90;20.23;;;17.70;99.90;;;;;;5029250;28;20375;-68
2021/07/17 05:16:35;;;;;;;41.17;19.27;;;17.60;99.90;;;;;;5014183;28;20034;-69
2021/07/17 05:19:00;;;;;;;39.95;20.48;;;17.70;99.90;;;;;;5029447;28;20423;-68
2021/07/17 05:21:26;;;;;;;47.10;20.27;;;17.70;99.90;;;;;;5014153;28;20022;-69
2021/07/17 05:23:51;;;;;;;40.90;20.23;;;17.70;99.90;;;;;;5013578;28;20538;-68
2021/07/17 05:26:17;;;;;;;43.10;19.25;;;17.70;99.90;;;;;;5014072;28;20037;-68
2021/07/17 05:28:42;;;;;;;45.63;19.58;;;17.70;99.90;;;;;;5014101;28;20065;-68
2021/07/17 05:31:08;;;;;;;43.80;19.35;;;17.70;99.90;;;;;;5013424;28;20061;-69
2021/07/17 05:33:34;;;;;;;44.45;19.77;;;17.80;99.90;;;;;;5014072;28;20391;-68
2021/07/17 05:35:59;;;;;;;51.30;20.15;;;17.80;99.90;;;;;;5013452;28;20026;-69
2021/07/17 05:38:25;;;;;;;43.45;18.92;;;17.90;99.90;;;;;;5013940;28;20041;-68
2021/07/17 05:40:50;;;;;;;45.55;19.92;;;17.90;99.90;;;;;;5029255;28;20030;-69
2021/07/17 05:43:16;;;;;;;42.20;19.88;;;17.90;99.90;;;;;;5013722;28;20092;-68
2021/07/17 05:45:41;;;;;;;46.00;19.80;;;17.80;99.90;;;;;;5013965;28;20529;-69
2021/07/17 05:48:07;;;;;;;48.20;20.30;;;17.80;99.90;;;;;;5013912;28;20034;-69
2021/07/17 05:50:33;;;;;;;42.47;19.25;;;17.80;99.90;;;;;;5013848;28;20030;-68
2021/07/17 05:53:04;;;;;;;43.05;18.67;;;17.90;99.90;;;;;;5016478;28;20021;-69
2021/07/17 05:55:30;;;;;;;44.03;18.63;;;18.00;99.90;;;;;;5017687;28;20022;-68
2021/07/17 05:57:55;;;;;;;44.20;18.70;;;18.00;99.90;;;;;;5017696;28;20117;-69
2021/07/17 06:00:21;;;;;;;39.13;19.55;;;17.90;99.90;;;;;;5017626;28;20101;-69
2021/07/17 06:02:47;;;;;;;42.15;18.85;;;17.90;99.90;;;;;;5017238;28;20157;-69
2021/07/17 06:05:12;;;;;;;38.58;19.42;;;17.90;99.90;;;;;;5016997;28;20079;-69
2021/07/17 06:07:38;;;;;;;41.33;19.13;;;17.90;99.90;;;;;;5032749;28;20034;-68
2021/07/17 06:10:04;;;;;;;42.20;19.35;;;18.00;99.90;;;;;;5016781;28;20407;-68
2021/07/17 06:12:30;;;;;;;41.05;19.85;;;17.90;99.90;;;;;;5017069;28;20030;-68
2021/07/17 06:14:56;;;;;;;44.05;19.15;;;17.80;99.90;;;;;;5017037;28;20081;-69
2021/07/17 06:17:21;;;;;;;49.15;20.55;;;17.80;99.90;;;;;;5017241;28;20101;-68
2021/07/17 06:19:47;;;;;;;36.83;19.23;;;17.90;99.90;;;;;;5016651;28;20030;-68
2021/07/17 06:22:13;;;;;;;47.88;19.95;;;17.90;99.90;;;;;;5032489;28;20022;-69
2021/07/17 06:24:39;;;;;;;44.28;19.77;;;18.00;99.90;;;;;;5017030;28;20021;-68
2021/07/17 06:27:06;;;;;;;44.25;21.02;;;18.00;99.90;;;;;;5032065;28;20089;-68
2021/07/17 06:29:32;;;;;;;43.40;19.80;;;18.00;99.90;;;;;;5032515;28;20026;-69
2021/07/17 06:31:58;;;;;;;40.17;19.15;;;18.00;99.90;;;;;;5031611;28;20360;-69
2021/07/17 06:34:23;;;;;;;39.60;18.63;;;18.10;99.90;;;;;;5016931;28;20029;-68
2021/07/17 06:36:49;;;;;;;45.03;19.67;;;18.10;99.90;;;;;;5016920;28;20029;-68
2021/07/17 06:39:16;;;;;;;41.10;19.15;;;18.00;99.90;;;;;;5016599;28;20030;-68
2021/07/17 06:41:41;;;;;;;51.80;20.92;;;17.90;99.90;;;;;;5031771;28;20153;-69
2021/07/17 06:44:07;;;;;;;44.00;19.77;;;18.00;99.90;;;;;;5016762;28;20056;-69
2021/07/17 06:46:33;;;;;;;49.35;20.25;;;18.00;99.90;;;;;;5031415;28;20391;-69
2021/07/17 06:48:58;;;;;;;43.20;19.88;;;18.00;99.90;;;;;;5016691;28;20068;-68
2021/07/17 06:51:24;;;;;;;48.28;20.00;;;18.10;99.90;;;;;;5016303;28;20061;-69
2021/07/17 06:53:49;;;;;;;47.33;19.23;;;18.10;99.90;;;;;;5016605;28;20018;-68
2021/07/17 06:56:15;;;;;;;41.63;17.00;;;18.00;99.90;;;;;;5016504;28;20025;-69
2021/07/17 06:58:41;;;;;;;43.70;18.45;;;18.10;99.90;;;;;;5031450;28;20045;-69
2021/07/17 07:01:07;;;;;;;34.75;17.58;;;18.10;99.90;;;;;;5016413;28;20018;-69
2021/07/17 07:03:33;;;;;;;40.10;17.13;;;18.10;99.90;;;;;;5015800;28;20506;-69
2021/07/17 07:05:58;;;;;;;41.15;16.88;;;18.20;99.90;;;;;;5031604;28;20459;-69
2021/07/17 07:08:32;;;;;;;33.63;16.65;;;18.20;99.90;;;;;;5014906;28;20030;-69
2021/07/17 07:10:58;;;;;;;39.85;16.00;;;18.30;99.90;;;;;;5030910;28;20052;-68
2021/07/17 07:13:23;;;;;;;49.95;17.73;;;18.10;99.90;;;;;;5031534;28;20455;-68
2021/07/17 07:15:49;;;;;;;37.70;16.48;;;18.20;99.90;;;;;;5016171;28;20029;-67
2021/07/17 07:18:15;;;;;;;41.50;15.50;;;18.20;99.90;;;;;;5030778;28;20390;-68
2021/07/17 07:20:42;;;;;;;33.42;15.15;;;18.10;99.90;;;;;;5016015;28;20380;-69
2021/07/17 07:23:07;;;;;;;36.67;14.85;;;18.30;99.90;;;;;;5016001;28;20026;-69
2021/07/17 07:25:34;;;;;;;30.95;15.05;;;18.30;99.90;;;;;;5015701;28;20036;-69
2021/07/17 07:27:59;;;;;;;37.22;15.50;;;18.30;99.90;;;;;;5015896;28;20068;-69
2021/07/17 07:30:25;;;;;;;32.53;15.18;;;18.30;99.90;;;;;;5030559;28;20030;-69
2021/07/17 07:32:51;;;;;;;38.63;15.00;;;18.40;99.90;;;;;;5015564;28;20088;-69
2021/07/17 07:35:18;;;;;;;32.20;14.40;;;18.30;99.90;;;;;;5015265;28;20026;-69
2021/07/17 07:37:44;;;;;;;38.97;15.15;;;18.40;99.90;;;;;;5015710;28;20104;-69
2021/07/17 07:40:11;;;;;;;34.17;14.80;;;18.50;99.90;;;;;;5030886;28;20022;-68
2021/07/17 07:42:36;;;;;;;32.88;14.68;;;18.60;99.90;;;;;;5030365;28;20025;-69
2021/07/17 07:45:03;;;;;;;30.85;13.98;;;18.70;99.90;;;;;;5015636;28;20430;-68
2021/07/17 07:47:29;;;;;;;33.72;14.68;;;18.70;99.90;;;;;;5015572;28;20018;-69
2021/07/17 07:49:56;;;;;;;37.25;14.68;;;18.80;99.90;;;;;;5030543;28;20030;-69
2021/07/17 07:52:22;;;;;;;33.83;14.43;;;18.80;99.90;;;;;;5015242;28;20041;-69
2021/07/17 07:54:47;;;;;;;29.90;13.57;;;18.80;99.90;;;;;;5015218;28;20506;-69
2021/07/17 07:57:13;;;;;;;33.55;13.70;;;18.80;99.90;;;;;;5015186;28;20383;-69
2021/07/17 07:59:39;;;;;;;29.80;13.80;;;18.90;99.90;;;;;;5014846;28;20151;-69
2021/07/17 08:02:04;;;;;;;33.90;14.77;;;18.90;99.90;;;;;;5015072;28;20391;-69
2021/07/17 08:04:30;;;;;;;29.65;13.07;;;18.90;99.90;;;;;;5030424;28;20053;-69
2021/07/17 08:06:56;;;;;;;33.53;13.48;;;19.00;99.90;;;;;;5029977;28;20558;-68
2021/07/17 08:09:22;;;;;;;32.38;13.30;;;19.10;99.90;;;;;;5014721;28;20180;-69
2021/07/17 08:11:48;;;;;;;26.20;12.75;;;19.20;99.90;;;;;;5029804;28;20483;-69
2021/07/17 08:14:14;;;;;;;39.28;13.65;;;19.30;99.90;;;;;;5030110;28;20033;-68
2021/07/17 08:16:39;;;;;;;29.30;12.70;;;19.30;99.90;;;;;;5014952;28;20431;-69
2021/07/17 08:19:05;;;;;;;25.27;11.90;;;19.20;99.90;;;;;;5030160;28;20086;-69
2021/07/17 08:21:30;;;;;;;23.15;11.23;;;19.30;99.90;;;;;;5014669;28;20033;-69
2021/07/17 08:23:56;;;;;;;27.98;11.90;;;19.30;99.90;;;;;;5014951;28;20446;-69
2021/07/17 08:26:22;;;;;;;32.00;11.20;;;19.30;99.90;;;;;;5014606;28;20467;-69
2021/07/17 08:28:47;;;;;;;28.20;11.02;;;19.30;99.90;;;;;;5014569;28;20044;-69
2021/07/17 08:31:13;;;;;;;22.90;10.77;;;19.40;99.90;;;;;;5029421;28;20475;-69
2021/07/17 08:33:38;;;;;;;22.60;11.23;;;19.50;99.90;;;;;;5014219;28;20033;-69
2021/07/17 08:36:04;;;;;;;23.98;11.75;;;19.60;99.90;;;;;;5029790;28;20021;-68
2021/07/17 08:38:30;;;;;;;19.02;10.50;;;19.60;99.90;;;;;;5014341;28;20029;-69
2021/07/17 08:40:56;;;;;;;25.17;10.80;;;19.60;99.90;;;;;;5014360;28;20423;-69
2021/07/17 08:43:23;;;;;;;31.20;11.95;;;19.40;99.90;;;;;;5014360;28;20026;-69
2021/07/17 08:45:49;;;;;;;29.38;11.35;;;19.20;99.90;;;;;;5014549;28;20455;-69
2021/07/17 08:48:20;;;;;;;26.80;12.00;;;19.10;99.90;;;;;;5029498;28;20034;-68
2021/07/17 08:50:47;;;;;;;30.00;11.30;;;19.40;99.90;;;;;;5014177;28;20058;-69
2021/07/17 08:53:16;;;;;;;25.90;10.43;;;19.70;99.90;;;;;;5029973;28;20448;-69
2021/07/17 08:55:41;;;;;;;26.58;10.95;;;19.70;99.90;;;;;;5014170;28;20467;-69
2021/07/17 08:58:07;;;;;;;23.80;10.05;;;19.90;99.90;;;;;;5013892;28;20025;-69
2021/07/17 09:00:37;;;;;;;23.63;10.25;;;20.10;99.90;;;;;;5029345;28;20030;-69
2021/07/17 09:03:05;;;;;;;27.63;10.35;;;20.70;99.90;;;;;;5029449;28;20026;-69
2021/07/17 09:05:36;;;;;;;22.17;9.15;;;21.30;99.90;;;;;;5014127;28;20046;-69
2021/07/17 09:08:02;;;;;;;21.08;8.45;;;22.00;99.90;;;;;;5029236;28;20097;-69
2021/07/17 09:10:34;;;;;;;21.80;9.00;;;22.40;99.90;;;;;;5013542;28;20407;-68
2021/07/17 09:13:21;;;;;;;22.48;9.02;;;22.40;99.90;;;;;;5014304;28;20014;-68
2021/07/17 09:16:07;;;;;;;18.98;8.77;;;22.00;99.90;;;;;;5014173;28;20033;-68
2021/07/17 09:18:44;;;;;;;23.95;8.23;;;22.30;99.90;;;;;;5013619;28;20026;-68
2021/07/17 09:21:14;;;;;;;20.73;8.65;;;23.00;99.90;;;;;;5013896;28;20033;-68
2021/07/17 09:23:43;;;;;;;22.23;8.95;;;23.30;99.90;;;;;;5014066;28;20026;-68
2021/07/17 09:26:11;;;;;;;20.92;7.70;;;23.80;99.90;;;;;;5015430;28;20028;-68
2021/07/17 09:28:37;;;;;;;21.50;7.10;;;23.90;99.90;;;;;;5033015;28;20451;-68
2021/07/17 09:31:05;;;;;;;19.23;7.50;;;24.40;99.90;;;;;;5018045;28;20054;-69
2021/07/17 09:33:31;;;;;;;16.10;6.68;;;25.30;99.90;;;;;;5032805;28;20030;-69
2021/07/17 09:35:57;;;;;;;17.15;7.18;;;25.60;99.90;;;;;;5017754;28;20519;-68
2021/07/17 09:38:25;;;;;;;17.75;7.32;;;25.50;99.90;;;;;;5018032;28;20022;-69
2021/07/17 09:40:58;;;;;;;14.93;6.32;;;25.30;99.90;;;;;;5017960;28;20026;-67
2021/07/17 09:46:21;;;;;;;12.88;5.80;;;26.70;99.90;;;;;;5112192;27;20885;-66
2021/07/17 09:48:53;;;;;;;16.23;6.00;;;26.20;99.90;;;;;;5111812;28;20024;-69
2021/07/17 09:51:25;;;;;;;20.70;6.87;;;25.80;99.90;;;;;;5110349;28;20020;-69
2021/07/17 09:53:53;;;;;;;16.92;6.05;;;25.50;99.90;;;;;;5111404;28;20234;-69
2021/07/17 09:56:22;;;;;;;17.73;5.93;;;25.80;99.90;;;;;;5110253;28;20103;-69
2021/07/17 09:58:48;;;;;;;12.43;5.93;;;25.70;99.90;;;;;;5111382;28;20480;-69
2021/07/17 10:01:19;;;;;;;10.77;5.68;;;25.50;99.90;;;;;;5111397;28;20050;-69
2021/07/17 10:03:46;;;;;;;11.70;5.60;;;25.30;99.90;;;;;;5111253;28;20061;-69
2021/07/17 10:06:26;;;;;;;13.90;5.68;;;25.10;99.90;;;;;;5111607;28;20019;-68
2021/07/17 10:08:52;;;;;;;11.55;5.20;;;25.50;99.90;;;;;;5111230;28;20377;-68
2021/07/17 10:11:26;;;;;;;13.43;5.47;;;25.70;99.90;;;;;;5111195;28;20035;-68
2021/07/17 10:13:52;;;;;;;15.63;5.72;;;25.70;99.90;;;;;;5111458;28;20031;-69
2021/07/17 10:16:20;;;;;;;11.85;5.13;;;26.00;99.90;;;;;;5109621;28;20023;-69
2021/07/17 10:18:47;;;;;;;14.38;5.20;;;26.90;99.90;;;;;;5110167;28;20016;-69
2021/07/17 10:21:13;;;;;;;10.13;4.75;;;27.90;99.90;;;;;;5110551;28;20023;-69
2021/07/17 10:23:40;;;;;;;10.63;4.88;;;28.60;99.90;;;;;;5110611;28;20365;-69
2021/07/17 10:26:07;;;;;;;15.02;5.05;;;28.40;99.90;;;;;;5109370;28;20031;-69
2021/07/17 10:28:33;;;;;;;16.55;5.07;;;29.60;99.90;;;;;;5109182;28;20445;-69
2021/07/17 10:31:00;;;;;;;11.30;4.38;;;30.40;99.90;;;;;;5110718;28;20016;-69
2021/07/17 10:33:28;;;;;;;10.55;4.70;;;30.50;99.90;;;;;;5109477;28;20024;-69
2021/07/17 10:35:56;;;;;;;12.35;5.00;;;30.80;99.90;;;;;;5109290;28;20077;-70
2021/07/17 10:38:22;;;;;;;14.32;5.28;;;30.40;99.90;;;;;;5109129;28;20111;-69
2021/07/17 10:40:49;;;;;;;12.13;4.65;;;30.20;99.90;;;;;;5110315;28;20050;-69
2021/07/17 10:43:16;;;;;;;11.93;4.32;;;30.10;99.90;;;;;;5109430;28;20056;-69
2021/07/17 10:45:43;;;;;;;10.52;4.00;;;30.10;99.90;;;;;;5110042;28;20536;-68
2021/07/17 10:48:30;;;;;;;11.23;5.00;;;30.50;99.90;;;;;;5109328;28;20087;-69
2021/07/17 10:50:59;;;;;;;9.50;4.28;;;30.00;99.90;;;;;;5110094;28;20465;-69
2021/07/17 10:53:43;;;;;;;8.68;4.45;;;29.00;99.90;;;;;;5110632;28;20469;-68
2021/07/17 11:02:07;;;;;;;11.27;4.20;;;28.40;99.90;;;;;;5112131;27;20347;-67
2021/07/17 11:04:54;;;;;;;12.20;4.38;;;27.60;99.90;;;;;;5111837;28;20028;-68
2021/07/17 11:07:28;;;;;;;8.85;4.15;;;27.50;99.90;;;;;;5112032;28;20023;-67
2021/07/17 11:09:57;;;;;;;12.63;3.97;;;27.40;99.90;;;;;;5111826;28;20027;-68
2021/07/17 11:12:25;;;;;;;8.50;4.22;;;27.70;99.90;;;;;;5111502;28;20016;-68
2021/07/17 11:14:53;;;;;;;8.82;3.30;;;28.00;99.90;;;;;;5111746;28;20020;-68
2021/07/17 11:17:39;;;;;;;7.97;3.30;;;28.00;99.90;;;;;;5111352;28;20031;-68
2021/07/17 11:20:28;;;;;;;11.30;4.18;;;27.60;99.90;;;;;;5111224;28;20016;-68
2021/07/17 11:23:13;;;;;;;9.65;3.80;;;27.50;99.90;;;;;;5111479;28;20069;-68
2021/07/17 11:25:50;;;;;;;9.05;3.40;;;27.20;99.90;;;;;;5110394;28;20016;-67
2021/07/17 11:28:52;;;;;;;9.63;3.85;;;27.00;99.90;;;;;;5111473;28;20103;-68
2021/07/17 11:31:43;;;;;;;9.02;3.33;;;27.20;99.90;;;;;;5111432;28;20024;-68
2021/07/17 11:34:20;;;;;;;9.57;4.10;;;27.40;99.90;;;;;;5111323;28;20577;-67
2021/07/17 11:36:48;;;;;;;8.60;3.65;;;26.80;99.90;;;;;;5109469;28;20081;-68
2021/07/17 11:39:16;;;;;;;11.50;3.40;;;26.50;99.90;;;;;;5110701;28;20366;-68
2021/07/17 11:41:42;;;;;;;11.73;3.50;;;26.80;99.90;;;;;;5111074;28;20027;-68
2021/07/17 11:44:08;;;;;;;7.57;3.92;;;27.20;99.90;;;;;;5110871;28;20046;-68
2021/07/17 11:46:34;;;;;;;10.50;3.22;;;27.50;99.90;;;;;;5111140;28;20032;-68
2021/07/17 11:49:07;;;;;;;8.90;3.50;;;27.60;99.90;;;;;;5110719;28;20027;-68
2021/07/17 11:51:34;;;;;;;7.10;2.92;;;27.60;99.90;;;;;;5109598;28;20110;-67
2021/07/17 11:54:01;;;;;;;7.18;3.13;;;27.30;99.90;;;;;;5109108;28;20039;-68
2021/07/17 11:56:28;;;;;;;10.48;3.38;;;27.20;99.90;;;;;;5109382;28;20024;-68
2021/07/17 11:59:14;;;;;;;7.50;2.90;;;27.50;99.90;;;;;;5091989;28;20400;-68
2021/07/17 12:02:00;;;;;;;8.13;3.20;;;27.50;99.90;;;;;;5110117;28;20036;-68
2021/07/17 12:04:32;;;;;;;8.60;2.58;;;27.50;99.90;;;;;;5108908;28;20392;-68
2021/07/17 12:07:00;;;;;;;7.93;3.20;;;27.20;99.90;;;;;;5091912;28;20027;-68
2021/07/17 12:09:36;;;;;;;8.98;2.88;;;27.10;99.90;;;;;;5109206;28;20020;-67
2021/07/17 12:12:35;;;;;;;7.50;2.75;;;27.30;99.90;;;;;;5104756;28;20035;-68
2021/07/17 12:18:00;;;;;;;6.05;2.42;;;27.80;99.90;;;;;;5091799;28;20926;-67
2021/07/17 12:23:24;;;;;;;7.05;2.83;;;28.20;99.90;;;;;;5071640;28;20379;-67
2021/07/17 12:28:29;;;;;;;9.23;2.80;;;28.00;99.90;;;;;;5071657;28;20135;-67
2021/07/17 12:30:58;;;;;;;5.90;2.45;;;27.20;99.90;;;;;;5071333;28;20051;-67
2021/07/17 12:33:34;;;;;;;5.40;2.53;;;27.80;99.90;;;;;;5069839;28;20047;-67
2021/07/17 12:38:45;;;;;;;6.18;2.60;;;28.00;99.90;;;;;;5091894;28;20445;-68
2021/07/17 12:41:16;;;;;;;4.97;2.33;;;27.40;99.90;;;;;;5089698;28;20451;-68
2021/07/17 12:43:45;;;;;;;9.10;2.53;;;27.20;99.90;;;;;;5090326;28;20022;-67
2021/07/17 12:46:18;;;;;;;7.95;2.60;;;27.60;99.90;;;;;;5091177;28;20020;-68
2021/07/17 12:48:48;;;;;;;7.80;2.20;;;28.00;99.90;;;;;;5090429;28;20020;-67
2021/07/17 12:51:17;;;;;;;5.63;2.30;;;28.10;99.90;;;;;;5091046;28;20047;-67
2021/07/17 12:53:44;;;;;;;7.03;2.50;;;27.90;99.90;;;;;;5091329;28;20016;-67